Wilson Algeciras — 9HA2471 — position and weather

sailwx.info

Track history (hours):
 
Tides and Currents Weather Stations Pressure Air Temp Water Temp Dewpoint Dewpoint Depression Visibility Wind Speed Wind Dir Waves Ship Positions

Wilson Algeciras

Last reported at 2017-Aug-21 13:47 UTC. Time now 2017-Aug-23 04:23 UTC.
Position N 54°56' E 019°37'.

Length 88 m; draft 3.1 m.

Type: Ship. MMSI: 248689000.

Date/timePositionNaut miles runAvg speedWind from/ knotsBaromVisibWave heightAir tempDewpointWater temp
2017-Aug-21 13:47N 54°56' E 019°37'3 9.7
2017-Aug-21 13:31N 54°53' E 019°37'510.0
2017-Aug-21 13:01N 54°49' E 019°36'4 8.8
2017-Aug-21 12:30N 54°44' E 019°39'5 9.9
2017-Aug-21 12:00N 54°42' E 019°46'5 0.1
2017-Aug-19 12:07N 54°43' E 019°38'1 4.9
2017-Aug-19 12:00N 54°44' E 019°38'2 4.9
2017-Aug-19 11:30N 54°45' E 019°34'2 4.7
2017-Aug-19 11:00N 54°46' E 019°30'2 4.4
2017-Aug-19 10:28N 54°46' E 019°26'2 3.8
2017-Aug-19 09:56N 54°47' E 019°23'18 8.1
2017-Aug-19 07:45N 55°03' E 019°08'3 9.4
2017-Aug-19 07:26N 55°05' E 019°06'63 9.2
2017-Aug-19 00:31N 56°02' E 018°17'0 9.0
2017-Aug-19 00:30N 56°03' E 018°17'6 8.8
2017-Aug-18 23:47N 56°09' E 018°14'101 3.7
2017-Aug-17 20:17N 57°33' E 016°35'0 0.0
2017-Aug-17 20:01N 57°33' E 016°35'0 0.0
2017-Aug-17 19:30N 57°33' E 016°35'0 0.0
2017-Aug-17 19:00N 57°33' E 016°35'2 3.0
2017-Aug-17 18:25N 57°34' E 016°38'3 8.6
2017-Aug-17 18:01N 57°32' E 016°44'5 9.0
2017-Aug-17 17:30N 57°31' E 016°52'3 5.3
2017-Aug-17 17:01N 57°32' E 016°56'0 0.7
2017-Aug-17 16:30N 57°32' E 016°57'0 0.8
2017-Aug-17 16:00N 57°32' E 016°57'59 6.2
2017-Aug-17 06:30N 56°33' E 017°07'510.1
2017-Aug-17 06:01N 56°28' E 017°05'510.3
2017-Aug-17 05:31N 56°23' E 017°04'510.3
2017-Aug-17 05:01N 56°18' E 017°02'510.0
2017-Aug-17 04:30N 56°13' E 016°60'5 9.9
2017-Aug-17 04:01N 56°09' E 016°58'5 9.9
2017-Aug-17 03:30N 56°04' E 016°55'510.2
2017-Aug-17 03:00N 55°59' E 016°52'510.3
2017-Aug-17 02:31N 55°54' E 016°48'510.1
2017-Aug-17 02:00N 55°50' E 016°45'510.2
2017-Aug-17 01:30N 55°45' E 016°41'610.2
2017-Aug-17 00:55N 55°39' E 016°37'410.1
2017-Aug-17 00:30N 55°36' E 016°34'510.2
2017-Aug-17 00:01N 55°31' E 016°31'510.2
2017-Aug-16 23:31N 55°26' E 016°28'510.2
2017-Aug-16 23:00N 55°21' E 016°24'510.3
2017-Aug-16 22:31N 55°17' E 016°21'510.3
2017-Aug-16 22:01N 55°12' E 016°18'510.3
2017-Aug-16 21:31N 55°07' E 016°14'510.3
2017-Aug-16 21:01N 55°02' E 016°11'610.3
2017-Aug-16 20:27N 54°57' E 016°07'410.3
2017-Aug-16 20:00N 54°53' E 016°04'610.3
2017-Aug-16 19:27N 54°48' E 015°60'510.3
2017-Aug-16 19:00N 54°43' E 015°56'610.3
2017-Aug-16 18:25N 54°38' E 015°52'40 1.0
2017-Aug-15 01:21N 54°31' E 014°43'3 8.6
2017-Aug-15 00:58N 54°32' E 014°39'7 8.2
2017-Aug-15 00:07N 54°35' E 014°28'1 8.8
2017-Aug-15 00:00N 54°35' E 014°26'4 8.3
2017-Aug-14 23:30N 54°36' E 014°19'4 8.4
2017-Aug-14 23:00N 54°38' E 014°12'4 8.5
2017-Aug-14 22:30N 54°41' E 014°07'4 8.6
2017-Aug-14 21:59N 54°43' E 014°01'4 8.8
2017-Aug-14 21:30N 54°46' E 013°55'5 8.9
2017-Aug-14 20:59N 54°49' E 013°48'6 8.9
2017-Aug-14 20:17N 54°53' E 013°40'3 9.0
2017-Aug-14 19:59N 54°54' E 013°36'6 9.1
2017-Aug-14 19:20N 54°58' E 013°28'3 9.1
2017-Aug-14 18:58N 55°00' E 013°24'6 9.1
2017-Aug-14 18:15N 55°04' E 013°15'3 9.0
2017-Aug-14 17:58N 55°06' E 013°11'4 9.0
2017-Aug-14 17:30N 55°08' E 013°06'5 9.0
2017-Aug-14 17:00N 55°11' E 012°59'5 9.3
2017-Aug-14 16:30N 55°14' E 012°53'5 9.2
2017-Aug-14 16:00N 55°16' E 012°46'4 8.9
2017-Aug-14 15:30N 55°18' E 012°39'4 8.0
2017-Aug-14 15:00N 55°22' E 012°39'4 8.5
2017-Aug-14 14:30N 55°26' E 012°40'4 8.6
2017-Aug-14 14:00N 55°30' E 012°42'4 8.4
2017-Aug-14 13:30N 55°35' E 012°42'4 8.1
2017-Aug-14 13:00N 55°39' E 012°41'4 8.5
2017-Aug-14 12:30N 55°43' E 012°41'4 8.7
2017-Aug-14 12:01N 55°47' E 012°40'5 9.2
2017-Aug-14 11:30N 55°52' E 012°39'5 9.0
2017-Aug-14 11:00N 55°56' E 012°38'5 9.1
2017-Aug-14 10:30N 56°01' E 012°38'4 8.1
2017-Aug-14 10:00N 56°05' E 012°36'5 9.4
2017-Aug-14 09:30N 56°08' E 012°29'5 9.7
2017-Aug-14 09:00N 56°10' E 012°22'48 8.7
2017-Aug-14 03:27N 56°54' E 011°46'4 8.8
2017-Aug-14 03:00N 56°58' E 011°44'6 9.0
2017-Aug-14 02:23N 57°03' E 011°40'3 9.1
2017-Aug-14 02:00N 57°06' E 011°38'4 8.9
2017-Aug-14 01:30N 57°11' E 011°35'4 8.7
2017-Aug-14 01:00N 57°15' E 011°32'4 8.6
2017-Aug-14 00:30N 57°19' E 011°30'4 8.9
2017-Aug-14 00:00N 57°23' E 011°27'5 8.9
2017-Aug-13 23:30N 57°27' E 011°24'4 8.8
2017-Aug-13 23:00N 57°30' E 011°18'4 9.0
2017-Aug-13 22:30N 57°33' E 011°12'5 9.0
2017-Aug-13 22:00N 57°36' E 011°06'5 9.3
2017-Aug-13 21:30N 57°40' E 010°59'5 9.6
2017-Aug-13 21:00N 57°43' E 010°53'5 9.4
2017-Aug-13 20:30N 57°46' E 010°46'510.1
2017-Aug-13 20:00N 57°47' E 010°37'510.0
2017-Aug-13 19:30N 57°48' E 010°28'5 9.4
2017-Aug-13 19:00N 57°48' E 010°19'5 9.1
2017-Aug-13 18:30N 57°48' E 010°10'5 9.3
2017-Aug-13 17:59N 57°48' E 010°01'5210.0
2017-Aug-13 12:45N 57°52' E 008°23'2 8.7
2017-Aug-13 12:30N 57°52' E 008°19'4 8.7
2017-Aug-13 12:00N 57°52' E 008°11'4 8.7
2017-Aug-13 11:30N 57°53' E 008°03'4 8.6
2017-Aug-13 11:00N 57°53' E 007°55'4 8.7
2017-Aug-13 10:30N 57°53' E 007°46'4 8.7
2017-Aug-13 10:00N 57°54' E 007°38'4 8.8
2017-Aug-13 09:30N 57°54' E 007°30'4 8.9
2017-Aug-13 09:00N 57°54' E 007°22'4 8.8
2017-Aug-13 08:30N 57°55' E 007°13'4 8.8
2017-Aug-13 08:00N 57°55' E 007°05'5 9.0
2017-Aug-13 07:30N 57°55' E 006°57'5 9.6
2017-Aug-13 07:01N 57°57' E 006°49'5 9.5
2017-Aug-13 06:30N 57°60' E 006°41'5 9.6
2017-Aug-13 06:01N 58°02' E 006°33'5 9.2
2017-Aug-13 05:30N 58°04' E 006°25'4 8.7
2017-Aug-13 05:00N 58°07' E 006°18'4 8.6
2017-Aug-13 04:30N 58°09' E 006°12'4 8.7
2017-Aug-13 04:00N 58°12' E 006°05'4 8.9
2017-Aug-13 03:30N 58°14' E 005°58'4 8.5
2017-Aug-13 03:00N 58°17' E 005°52'4 8.4
2017-Aug-13 02:30N 58°19' E 005°45'4 8.4
2017-Aug-13 02:00N 58°22' E 005°39'4 8.3
2017-Aug-13 01:30N 58°25' E 005°35'4 8.1
2017-Aug-13 01:00N 58°29' E 005°32'4 8.7
2017-Aug-13 00:30N 58°33' E 005°28'4 8.9
2017-Aug-13 00:01N 58°37' E 005°23'5 9.4
2017-Aug-12 23:31N 58°41' E 005°19'5 9.0
2017-Aug-12 23:01N 58°45' E 005°15'4 8.6
2017-Aug-12 22:30N 58°49' E 005°11'4 8.2
2017-Aug-12 22:01N 58°52' E 005°07'4 8.2
2017-Aug-12 21:30N 58°56' E 005°02'4 8.2
2017-Aug-12 21:01N 58°59' E 004°58'4 8.7
2017-Aug-12 20:31N 59°03' E 004°53'5 9.2
2017-Aug-12 20:00N 59°07' E 004°49'19 8.3
2017-Aug-12 17:45N 59°25' E 004°44'2 8.5
2017-Aug-12 17:30N 59°27' E 004°44'4 8.4
2017-Aug-12 17:00N 59°32' E 004°45'4 8.4
2017-Aug-12 16:30N 59°36' E 004°47'4 8.2
2017-Aug-12 16:00N 59°40' E 004°48'4 8.5
2017-Aug-12 15:30N 59°44' E 004°49'4 9.1
2017-Aug-12 15:00N 59°48' E 004°51'4 8.8
2017-Aug-12 14:30N 59°53' E 004°52'4 8.6
2017-Aug-12 14:00N 59°57' E 004°54'4 8.4
2017-Aug-12 13:30N 60°01' E 004°55'3 5.3
2017-Aug-12 13:00N 60°04' E 004°55'3 5.4
2017-Aug-12 12:30N 60°07' E 004°56'3 6.6
2017-Aug-12 12:00N 60°09' E 005°01'4 9.0
2017-Aug-12 11:30N 60°11' E 005°09'4 8.8
2017-Aug-12 11:00N 60°15' E 005°09'5 9.1
2017-Aug-12 10:30N 60°19' E 005°12'4 7.2
2017-Aug-12 10:00N 60°23' E 005°11'4 8.0
2017-Aug-12 09:30N 60°26' E 005°15'5 9.7
2017-Aug-12 09:00N 60°31' E 005°16'5 9.7
2017-Aug-12 08:30N 60°34' E 005°24'5 9.4
2017-Aug-12 08:00N 60°37' E 005°32'4 7.6
2017-Aug-12 07:30N 60°41' E 005°34'1 2.5
2017-Aug-12 07:00N 60°42' E 005°33'0 0.0
2017-Aug-12 06:29N 60°42' E 005°33'0 0.0
2017-Aug-12 05:59N 60°42' E 005°33'0 0.0
2017-Aug-12 05:29N 60°42' E 005°33'0 0.0
2017-Aug-12 04:59N 60°42' E 005°33'0 0.0
2017-Aug-12 04:29N 60°42' E 005°33'0 0.0
2017-Aug-12 03:56N 60°42' E 005°33'0 0.0
2017-Aug-12 03:29N 60°42' E 005°33'0 0.0
2017-Aug-12 02:56N 60°42' E 005°33'0 0.0
2017-Aug-12 02:29N 60°42' E 005°33'0 0.0
2017-Aug-12 01:59N 60°42' E 005°33'0 0.0
2017-Aug-12 01:29N 60°42' E 005°33'0 0.0
2017-Aug-12 00:59N 60°42' E 005°33'0 0.0
2017-Aug-12 00:29N 60°42' E 005°33'0 0.0
2017-Aug-11 23:56N 60°42' E 005°33'0 0.0
2017-Aug-11 23:26N 60°42' E 005°33'0 0.0
2017-Aug-11 22:56N 60°42' E 005°33'0 0.0
2017-Aug-11 22:29N 60°42' E 005°33'0 0.0
2017-Aug-11 21:59N 60°42' E 005°33'0 0.0
2017-Aug-11 21:23N 60°42' E 005°33'0 0.0
2017-Aug-11 20:50N 60°42' E 005°33'0 0.0
2017-Aug-11 20:29N 60°42' E 005°33'0 0.0
2017-Aug-11 19:59N 60°42' E 005°33'0 0.0
2017-Aug-11 19:29N 60°42' E 005°33'0 0.0
2017-Aug-11 18:53N 60°42' E 005°33'0 0.0
2017-Aug-11 18:29N 60°42' E 005°33'0 0.0
2017-Aug-11 17:59N 60°42' E 005°33'0 0.0
2017-Aug-11 17:29N 60°42' E 005°33'0 0.0
2017-Aug-11 17:01N 60°42' E 005°33'0 0.7
2017-Aug-11 16:30N 60°42' E 005°34'1 1.6
2017-Aug-11 16:01N 60°41' E 005°34'2 4.2
2017-Aug-11 15:30N 60°39' E 005°35'1 1.7
2017-Aug-11 15:00N 60°38' E 005°35'2 1.7
2017-Aug-11 14:00N 60°37' E 005°31'  
Track history (hours):
 
Tides and Currents Weather Stations Pressure Air Temp Water Temp Dewpoint Dewpoint Depression Visibility Wind Speed Wind Dir Waves Ship Positions

Wilson Algeciras

Last reported at 2017-Aug-21 13:47 UTC. Time now 2017-Aug-23 04:23 UTC.
Position N 54°56' E 019°37'.

Length 88 m; draft 3.1 m.

Type: Ship. MMSI: 248689000.

Date/timePositionNaut miles runAvg speedWind from/ knotsBaromVisibWave heightAir tempDewpointWater temp
2017-Aug-21 13:47N 54°56' E 019°37'3 9.7
2017-Aug-21 13:31N 54°53' E 019°37'510.0
2017-Aug-21 13:01N 54°49' E 019°36'4 8.8
2017-Aug-21 12:30N 54°44' E 019°39'5 9.9
2017-Aug-21 12:00N 54°42' E 019°46'5 0.1
2017-Aug-19 12:07N 54°43' E 019°38'1 4.9
2017-Aug-19 12:00N 54°44' E 019°38'2 4.9
2017-Aug-19 11:30N 54°45' E 019°34'2 4.7
2017-Aug-19 11:00N 54°46' E 019°30'2 4.4
2017-Aug-19 10:28N 54°46' E 019°26'2 3.8
2017-Aug-19 09:56N 54°47' E 019°23'18 8.1
2017-Aug-19 07:45N 55°03' E 019°08'3 9.4
2017-Aug-19 07:26N 55°05' E 019°06'63 9.2
2017-Aug-19 00:31N 56°02' E 018°17'0 9.0
2017-Aug-19 00:30N 56°03' E 018°17'6 8.8
2017-Aug-18 23:47N 56°09' E 018°14'101 3.7
2017-Aug-17 20:17N 57°33' E 016°35'0 0.0
2017-Aug-17 20:01N 57°33' E 016°35'0 0.0
2017-Aug-17 19:30N 57°33' E 016°35'0 0.0
2017-Aug-17 19:00N 57°33' E 016°35'2 3.0
2017-Aug-17 18:25N 57°34' E 016°38'3 8.6
2017-Aug-17 18:01N 57°32' E 016°44'5 9.0
2017-Aug-17 17:30N 57°31' E 016°52'3 5.3
2017-Aug-17 17:01N 57°32' E 016°56'0 0.7
2017-Aug-17 16:30N 57°32' E 016°57'0 0.8
2017-Aug-17 16:00N 57°32' E 016°57'59 6.2
2017-Aug-17 06:30N 56°33' E 017°07'510.1
2017-Aug-17 06:01N 56°28' E 017°05'510.3
2017-Aug-17 05:31N 56°23' E 017°04'510.3
2017-Aug-17 05:01N 56°18' E 017°02'510.0
2017-Aug-17 04:30N 56°13' E 016°60'5 9.9
2017-Aug-17 04:01N 56°09' E 016°58'5 9.9
2017-Aug-17 03:30N 56°04' E 016°55'510.2
2017-Aug-17 03:00N 55°59' E 016°52'510.3
2017-Aug-17 02:31N 55°54' E 016°48'510.1
2017-Aug-17 02:00N 55°50' E 016°45'510.2
2017-Aug-17 01:30N 55°45' E 016°41'610.2
2017-Aug-17 00:55N 55°39' E 016°37'410.1
2017-Aug-17 00:30N 55°36' E 016°34'510.2
2017-Aug-17 00:01N 55°31' E 016°31'510.2
2017-Aug-16 23:31N 55°26' E 016°28'510.2
2017-Aug-16 23:00N 55°21' E 016°24'510.3
2017-Aug-16 22:31N 55°17' E 016°21'510.3
2017-Aug-16 22:01N 55°12' E 016°18'510.3
2017-Aug-16 21:31N 55°07' E 016°14'510.3
2017-Aug-16 21:01N 55°02' E 016°11'610.3
2017-Aug-16 20:27N 54°57' E 016°07'410.3
2017-Aug-16 20:00N 54°53' E 016°04'610.3
2017-Aug-16 19:27N 54°48' E 015°60'510.3
2017-Aug-16 19:00N 54°43' E 015°56'610.3
2017-Aug-16 18:25N 54°38' E 015°52'40 1.0
2017-Aug-15 01:21N 54°31' E 014°43'3 8.6
2017-Aug-15 00:58N 54°32' E 014°39'7 8.2
2017-Aug-15 00:07N 54°35' E 014°28'1 8.8
2017-Aug-15 00:00N 54°35' E 014°26'4 8.3
2017-Aug-14 23:30N 54°36' E 014°19'4 8.4
2017-Aug-14 23:00N 54°38' E 014°12'4 8.5
2017-Aug-14 22:30N 54°41' E 014°07'4 8.6
2017-Aug-14 21:59N 54°43' E 014°01'4 8.8
2017-Aug-14 21:30N 54°46' E 013°55'5 8.9
2017-Aug-14 20:59N 54°49' E 013°48'6 8.9
2017-Aug-14 20:17N 54°53' E 013°40'3 9.0
2017-Aug-14 19:59N 54°54' E 013°36'6 9.1
2017-Aug-14 19:20N 54°58' E 013°28'3 9.1
2017-Aug-14 18:58N 55°00' E 013°24'6 9.1
2017-Aug-14 18:15N 55°04' E 013°15'3 9.0
2017-Aug-14 17:58N 55°06' E 013°11'4 9.0
2017-Aug-14 17:30N 55°08' E 013°06'5 9.0
2017-Aug-14 17:00N 55°11' E 012°59'5 9.3
2017-Aug-14 16:30N 55°14' E 012°53'5 9.2
2017-Aug-14 16:00N 55°16' E 012°46'4 8.9
2017-Aug-14 15:30N 55°18' E 012°39'4 8.0
2017-Aug-14 15:00N 55°22' E 012°39'4 8.5
2017-Aug-14 14:30N 55°26' E 012°40'4 8.6
2017-Aug-14 14:00N 55°30' E 012°42'4 8.4
2017-Aug-14 13:30N 55°35' E 012°42'4 8.1
2017-Aug-14 13:00N 55°39' E 012°41'4 8.5
2017-Aug-14 12:30N 55°43' E 012°41'4 8.7
2017-Aug-14 12:01N 55°47' E 012°40'5 9.2
2017-Aug-14 11:30N 55°52' E 012°39'5 9.0
2017-Aug-14 11:00N 55°56' E 012°38'5 9.1
2017-Aug-14 10:30N 56°01' E 012°38'4 8.1
2017-Aug-14 10:00N 56°05' E 012°36'5 9.4
2017-Aug-14 09:30N 56°08' E 012°29'5 9.7
2017-Aug-14 09:00N 56°10' E 012°22'48 8.7
2017-Aug-14 03:27N 56°54' E 011°46'4 8.8
2017-Aug-14 03:00N 56°58' E 011°44'6 9.0
2017-Aug-14 02:23N 57°03' E 011°40'3 9.1
2017-Aug-14 02:00N 57°06' E 011°38'4 8.9
2017-Aug-14 01:30N 57°11' E 011°35'4 8.7
2017-Aug-14 01:00N 57°15' E 011°32'4 8.6
2017-Aug-14 00:30N 57°19' E 011°30'4 8.9
2017-Aug-14 00:00N 57°23' E 011°27'5 8.9
2017-Aug-13 23:30N 57°27' E 011°24'4 8.8
2017-Aug-13 23:00N 57°30' E 011°18'4 9.0
2017-Aug-13 22:30N 57°33' E 011°12'5 9.0
2017-Aug-13 22:00N 57°36' E 011°06'5 9.3
2017-Aug-13 21:30N 57°40' E 010°59'5 9.6
2017-Aug-13 21:00N 57°43' E 010°53'5 9.4
2017-Aug-13 20:30N 57°46' E 010°46'510.1
2017-Aug-13 20:00N 57°47' E 010°37'510.0
2017-Aug-13 19:30N 57°48' E 010°28'5 9.4
2017-Aug-13 19:00N 57°48' E 010°19'5 9.1
2017-Aug-13 18:30N 57°48' E 010°10'5 9.3
2017-Aug-13 17:59N 57°48' E 010°01'5210.0
2017-Aug-13 12:45N 57°52' E 008°23'2 8.7
2017-Aug-13 12:30N 57°52' E 008°19'4 8.7
2017-Aug-13 12:00N 57°52' E 008°11'4 8.7
2017-Aug-13 11:30N 57°53' E 008°03'4 8.6
2017-Aug-13 11:00N 57°53' E 007°55'4 8.7
2017-Aug-13 10:30N 57°53' E 007°46'4 8.7
2017-Aug-13 10:00N 57°54' E 007°38'4 8.8
2017-Aug-13 09:30N 57°54' E 007°30'4 8.9
2017-Aug-13 09:00N 57°54' E 007°22'4 8.8
2017-Aug-13 08:30N 57°55' E 007°13'4 8.8
2017-Aug-13 08:00N 57°55' E 007°05'5 9.0
2017-Aug-13 07:30N 57°55' E 006°57'5 9.6
2017-Aug-13 07:01N 57°57' E 006°49'5 9.5
2017-Aug-13 06:30N 57°60' E 006°41'5 9.6
2017-Aug-13 06:01N 58°02' E 006°33'5 9.2
2017-Aug-13 05:30N 58°04' E 006°25'4 8.7
2017-Aug-13 05:00N 58°07' E 006°18'4 8.6
2017-Aug-13 04:30N 58°09' E 006°12'4 8.7
2017-Aug-13 04:00N 58°12' E 006°05'4 8.9
2017-Aug-13 03:30N 58°14' E 005°58'4 8.5
2017-Aug-13 03:00N 58°17' E 005°52'4 8.4
2017-Aug-13 02:30N 58°19' E 005°45'4 8.4
2017-Aug-13 02:00N 58°22' E 005°39'4 8.3
2017-Aug-13 01:30N 58°25' E 005°35'4 8.1
2017-Aug-13 01:00N 58°29' E 005°32'4 8.7
2017-Aug-13 00:30N 58°33' E 005°28'4 8.9
2017-Aug-13 00:01N 58°37' E 005°23'5 9.4
2017-Aug-12 23:31N 58°41' E 005°19'5 9.0
2017-Aug-12 23:01N 58°45' E 005°15'4 8.6
2017-Aug-12 22:30N 58°49' E 005°11'4 8.2
2017-Aug-12 22:01N 58°52' E 005°07'4 8.2
2017-Aug-12 21:30N 58°56' E 005°02'4 8.2
2017-Aug-12 21:01N 58°59' E 004°58'4 8.7
2017-Aug-12 20:31N 59°03' E 004°53'5 9.2
2017-Aug-12 20:00N 59°07' E 004°49'19 8.3
2017-Aug-12 17:45N 59°25' E 004°44'2 8.5
2017-Aug-12 17:30N 59°27' E 004°44'4 8.4
2017-Aug-12 17:00N 59°32' E 004°45'4 8.4
2017-Aug-12 16:30N 59°36' E 004°47'4 8.2
2017-Aug-12 16:00N 59°40' E 004°48'4 8.5
2017-Aug-12 15:30N 59°44' E 004°49'4 9.1
2017-Aug-12 15:00N 59°48' E 004°51'4 8.8
2017-Aug-12 14:30N 59°53' E 004°52'4 8.6
2017-Aug-12 14:00N 59°57' E 004°54'4 8.4
2017-Aug-12 13:30N 60°01' E 004°55'3 5.3
2017-Aug-12 13:00N 60°04' E 004°55'3 5.4
2017-Aug-12 12:30N 60°07' E 004°56'3 6.6
2017-Aug-12 12:00N 60°09' E 005°01'4 9.0
2017-Aug-12 11:30N 60°11' E 005°09'4 8.8
2017-Aug-12 11:00N 60°15' E 005°09'5 9.1
2017-Aug-12 10:30N 60°19' E 005°12'4 7.2
2017-Aug-12 10:00N 60°23' E 005°11'4 8.0
2017-Aug-12 09:30N 60°26' E 005°15'5 9.7
2017-Aug-12 09:00N 60°31' E 005°16'5 9.7
2017-Aug-12 08:30N 60°34' E 005°24'5 9.4
2017-Aug-12 08:00N 60°37' E 005°32'4 7.6
2017-Aug-12 07:30N 60°41' E 005°34'1 2.5
2017-Aug-12 07:00N 60°42' E 005°33'0 0.0
2017-Aug-12 06:29N 60°42' E 005°33'0 0.0
2017-Aug-12 05:59N 60°42' E 005°33'0 0.0
2017-Aug-12 05:29N 60°42' E 005°33'0 0.0
2017-Aug-12 04:59N 60°42' E 005°33'0 0.0
2017-Aug-12 04:29N 60°42' E 005°33'0 0.0
2017-Aug-12 03:56N 60°42' E 005°33'0 0.0
2017-Aug-12 03:29N 60°42' E 005°33'0 0.0
2017-Aug-12 02:56N 60°42' E 005°33'0 0.0
2017-Aug-12 02:29N 60°42' E 005°33'0 0.0
2017-Aug-12 01:59N 60°42' E 005°33'0 0.0
2017-Aug-12 01:29N 60°42' E 005°33'0 0.0
2017-Aug-12 00:59N 60°42' E 005°33'0 0.0
2017-Aug-12 00:29N 60°42' E 005°33'0 0.0
2017-Aug-11 23:56N 60°42' E 005°33'0 0.0
2017-Aug-11 23:26N 60°42' E 005°33'0 0.0
2017-Aug-11 22:56N 60°42' E 005°33'0 0.0
2017-Aug-11 22:29N 60°42' E 005°33'0 0.0
2017-Aug-11 21:59N 60°42' E 005°33'0 0.0
2017-Aug-11 21:23N 60°42' E 005°33'0 0.0
2017-Aug-11 20:50N 60°42' E 005°33'0 0.0
2017-Aug-11 20:29N 60°42' E 005°33'0 0.0
2017-Aug-11 19:59N 60°42' E 005°33'0 0.0
2017-Aug-11 19:29N 60°42' E 005°33'0 0.0
2017-Aug-11 18:53N 60°42' E 005°33'0 0.0
2017-Aug-11 18:29N 60°42' E 005°33'0 0.0
2017-Aug-11 17:59N 60°42' E 005°33'0 0.0
2017-Aug-11 17:29N 60°42' E 005°33'0 0.0
2017-Aug-11 17:01N 60°42' E 005°33'0 0.7
2017-Aug-11 16:30N 60°42' E 005°34'1 1.6
2017-Aug-11 16:01N 60°41' E 005°34'2 4.2
2017-Aug-11 15:30N 60°39' E 005°35'1 1.7
2017-Aug-11 15:00N 60°38' E 005°35'2 1.7
2017-Aug-11 14:00N 60°37' E 005°31'  

Dump ship's entire track history